createdAt,value
2023-03-20T04:47:05.285Z,818.67
2023-03-20T04:49:31.933Z,812.80
2023-03-20T04:51:58.649Z,812.85
2023-03-20T04:54:25.673Z,818.85
2023-03-20T04:56:52.313Z,814.72
2023-03-20T04:59:20.371Z,811.08
2023-03-20T05:01:47.029Z,804.05
2023-03-20T05:04:13.864Z,810.42
2023-03-20T05:06:40.832Z,806.35
2023-03-20T05:09:07.490Z,815.25
2023-03-20T05:11:34.140Z,806.03
2023-03-20T05:14:00.711Z,800.55
2023-03-20T05:16:27.380Z,805.65
2023-03-20T05:18:54.078Z,814.25
2023-03-20T05:21:20.666Z,810.88
2023-03-20T05:23:47.325Z,802.13
2023-03-20T05:26:13.952Z,813.80
2023-03-20T05:28:40.683Z,814.35
2023-03-20T05:31:07.904Z,803.10
2023-03-20T05:33:36.870Z,814.00
2023-03-20T05:36:06.029Z,813.30
2023-03-20T05:38:32.899Z,809.10
2023-03-20T05:41:00.736Z,811.72
2023-03-20T05:43:29.070Z,811.22
2023-03-20T05:45:56.865Z,818.28
2023-03-20T05:48:23.917Z,811.83
2023-03-20T05:50:50.901Z,824.90
2023-03-20T05:53:17.544Z,806.35
2023-03-20T05:55:44.749Z,813.47
2023-03-20T05:58:11.892Z,808.95
2023-03-20T06:00:39.895Z,813.03
2023-03-20T06:03:09.553Z,835.15
2023-03-20T06:05:36.600Z,820.70
2023-03-20T06:08:04.076Z,817.83
2023-03-20T06:10:31.163Z,817.50
2023-03-20T06:13:00.851Z,824.95
2023-03-20T06:15:30.614Z,831.67
2023-03-20T06:17:57.260Z,818.42
2023-03-20T06:20:24.282Z,820.42
2023-03-20T06:22:51.323Z,818.30
2023-03-20T06:25:18.652Z,825.70
2023-03-20T06:27:47.763Z,823.92
2023-03-20T06:30:16.058Z,821.40
2023-03-20T06:32:43.118Z,822.17
2023-03-20T06:35:10.931Z,841.53
2023-03-20T06:37:37.886Z,844.28
2023-03-20T06:40:05.541Z,851.38
2023-03-20T06:42:32.206Z,851.50
2023-03-20T06:44:58.817Z,845.55
2023-03-20T06:47:25.463Z,844.17
2023-03-20T06:49:52.109Z,846.35
2023-03-20T06:52:22.618Z,845.10
2023-03-20T06:54:51.015Z,843.90
2023-03-20T06:57:18.235Z,848.42
2023-03-20T06:59:45.105Z,847.83
2023-03-20T07:02:11.848Z,844.95
2023-03-20T07:04:38.848Z,855.85
2023-03-20T07:07:05.566Z,844.67
2023-03-20T07:09:33.185Z,843.95
2023-03-20T07:12:00.075Z,843.83
2023-03-20T07:14:26.831Z,844.87
2023-03-20T07:16:53.540Z,853.60
2023-03-20T07:19:20.331Z,855.08
2023-03-20T07:21:47.475Z,847.35
2023-03-20T07:24:14.399Z,843.47
2023-03-20T07:26:41.202Z,852.50
2023-03-20T07:29:08.163Z,857.53
2023-03-20T07:31:35.018Z,863.20
2023-03-20T07:34:01.796Z,864.80
2023-03-20T07:36:28.500Z,857.53
2023-03-20T07:38:55.501Z,856.65
2023-03-20T07:41:22.175Z,866.25
2023-03-20T07:43:48.827Z,871.95
2023-03-20T07:46:15.578Z,867.63
2023-03-20T07:48:42.218Z,870.75
2023-03-20T07:51:08.857Z,876.83
2023-03-20T07:53:35.587Z,882.58
2023-03-20T07:56:02.319Z,880.47
2023-03-20T07:58:28.927Z,888.00
2023-03-20T08:00:58.366Z,888.25
2023-03-20T08:03:25.206Z,894.72
2023-03-20T08:05:51.924Z,901.50
2023-03-20T08:08:18.856Z,901.72
2023-03-20T08:10:45.512Z,901.97
2023-03-20T08:13:12.143Z,907.90
2023-03-20T08:15:39.190Z,904.17
2023-03-20T08:18:06.288Z,912.25
2023-03-20T08:20:33.229Z,920.42
2023-03-20T08:22:59.950Z,920.47
2023-03-20T08:25:26.733Z,917.78
2023-03-20T08:27:53.414Z,928.08
2023-03-20T08:30:20.168Z,937.60
2023-03-20T08:32:46.860Z,947.78
2023-03-20T08:35:29.805Z,963.63
2023-03-20T08:37:58.994Z,957.90
2023-03-20T08:40:25.719Z,964.55
2023-03-20T08:42:52.458Z,959.05
2023-03-20T08:45:19.436Z,963.47
2023-03-20T08:47:49.122Z,968.57
2023-03-20T08:50:16.538Z,971.28
2023-03-20T08:52:44.287Z,967.67
2023-03-20T08:55:15.810Z,979.70
2023-03-20T08:57:43.201Z,995.38
2023-03-20T09:00:13.762Z,988.90
2023-03-20T09:02:40.618Z,1000.88
2023-03-20T09:05:07.861Z,1009.42
2023-03-20T09:07:34.676Z,1001.03
2023-03-20T09:10:01.390Z,1009.20
2023-03-20T09:12:28.046Z,1041.22
2023-03-20T09:14:54.987Z,1048.45
2023-03-20T09:17:21.727Z,1061.40
2023-03-20T09:19:48.389Z,1064.53
2023-03-20T09:22:17.914Z,1064.18
2023-03-20T09:24:45.514Z,1057.35
2023-03-20T09:27:13.928Z,1052.88
2023-03-20T09:29:41.692Z,1048.35
2023-03-20T09:32:11.844Z,1035.80
2023-03-20T09:34:38.937Z,1035.35
2023-03-20T09:37:06.530Z,1030.90
2023-03-20T09:39:34.215Z,1024.18
2023-03-20T09:42:13.285Z,1012.38
2023-03-20T09:44:48.797Z,1028.18
2023-03-20T09:47:51.468Z,1008.42
2023-03-20T09:50:37.053Z,1004.40
2023-03-20T09:53:17.205Z,1002.63
2023-03-20T09:55:44.346Z,1000.28
2023-03-20T09:58:25.713Z,1011.53
2023-03-20T10:00:55.367Z,1002.63
2023-03-20T10:03:47.993Z,1009.78
2023-03-20T10:06:16.774Z,1002.25
2023-03-20T10:08:45.315Z,1003.42
2023-03-20T10:11:30.948Z,1004.85
2023-03-20T10:14:21.953Z,1003.00
2023-03-20T10:17:22.232Z,1004.45
2023-03-20T10:19:49.043Z,1007.15
2023-03-20T10:22:38.060Z,997.22
2023-03-20T10:25:31.103Z,999.95
2023-03-20T10:27:59.101Z,1002.65
2023-03-20T10:30:42.244Z,1005.55
2023-03-20T10:33:33.351Z,1019.83
2023-03-20T10:36:13.404Z,1024.80
2023-03-20T10:38:54.258Z,1018.97
2023-03-20T10:41:25.513Z,1014.05
2023-03-20T10:43:53.752Z,1001.55
2023-03-20T10:46:31.690Z,1012.60
2023-03-20T10:49:08.468Z,1005.72
2023-03-20T10:51:45.920Z,1003.80
2023-03-20T10:54:27.640Z,1008.80
2023-03-20T10:56:57.090Z,1027.10
2023-03-20T10:59:32.757Z,1037.65
2023-03-20T11:01:59.468Z,1042.85
2023-03-20T11:04:26.193Z,1049.82
2023-03-20T11:07:00.999Z,1048.03
2023-03-20T11:09:29.726Z,1049.72
2023-03-20T11:12:02.078Z,1049.10
2023-03-20T11:14:39.171Z,1037.75
2023-03-20T11:17:06.980Z,1035.93
2023-03-20T11:19:36.567Z,1015.47
2023-03-20T11:22:24.443Z,1002.30
2023-03-20T11:25:02.504Z,1003.22
2023-03-20T11:27:34.513Z,1005.13
2023-03-20T11:30:04.668Z,1004.53
2023-03-20T11:32:54.411Z,1008.05
2023-03-20T11:35:31.515Z,997.33
2023-03-20T11:38:31.786Z,1000.03
2023-03-20T11:40:58.372Z,1008.70
2023-03-20T11:43:27.505Z,1006.80
2023-03-20T11:45:59.544Z,1003.28
2023-03-20T11:48:37.932Z,1010.45
2023-03-20T11:51:04.820Z,1007.70
2023-03-20T11:53:39.214Z,999.70
2023-03-20T11:56:15.051Z,1002.20
2023-03-20T11:59:02.298Z,1002.03
2023-03-20T12:01:37.571Z,995.67
2023-03-20T12:04:17.907Z,1000.13
2023-03-20T12:06:47.548Z,1003.75
2023-03-20T12:09:35.743Z,1002.50
2023-03-20T12:12:13.942Z,988.95
2023-03-20T12:14:47.184Z,993.63
2023-03-20T12:17:31.730Z,1001.25
2023-03-20T12:20:13.011Z,1003.38
2023-03-20T12:23:11.558Z,1007.88
2023-03-20T12:25:53.859Z,1008.35
2023-03-20T12:28:51.821Z,1003.85
2023-03-20T12:31:37.083Z,1002.30
2023-03-20T12:34:12.690Z,1008.08
2023-03-20T12:36:44.045Z,1005.28
2023-03-20T12:39:13.434Z,1005.97
2023-03-20T12:41:58.490Z,1009.05
2023-03-20T12:44:38.258Z,1017.47
2023-03-20T12:47:41.527Z,1010.47
2023-03-20T12:50:23.012Z,1006.85
2023-03-20T12:53:15.010Z,1005.67
2023-03-20T12:55:49.312Z,1004.10
2023-03-20T12:58:57.045Z,1003.00
2023-03-20T13:01:36.563Z,999.55
2023-03-20T13:04:27.573Z,997.15
2023-03-20T13:06:59.052Z,996.92
2023-03-20T13:09:45.283Z,994.42
2023-03-20T13:12:34.926Z,996.97
2023-03-20T13:15:38.615Z,996.42
2023-03-20T13:18:20.371Z,1002.97
2023-03-20T13:20:57.136Z,1023.05
2023-03-20T13:23:41.084Z,1016.92
2023-03-20T13:26:21.631Z,1005.72
2023-03-20T13:29:10.884Z,1003.22
2023-03-20T13:31:37.512Z,1003.80
2023-03-20T13:34:41.515Z,1001.73
2023-03-20T13:37:29.145Z,1011.35
2023-03-20T13:40:19.138Z,1000.90
2023-03-20T13:42:59.247Z,1002.05
2023-03-20T13:45:36.975Z,1000.20
2023-03-20T13:48:27.974Z,991.35
2023-03-20T13:51:19.391Z,993.72
2023-03-20T13:54:00.714Z,989.83
2023-03-20T13:56:43.013Z,989.40
2023-03-20T13:59:30.909Z,984.80
2023-03-20T14:02:12.602Z,985.25
2023-03-20T14:04:39.722Z,981.17
2023-03-20T14:07:33.702Z,982.22
2023-03-20T14:10:22.227Z,983.30
2023-03-20T14:13:05.245Z,980.78
2023-03-20T14:15:35.444Z,981.97
2023-03-20T14:18:07.341Z,982.57
2023-03-20T14:20:42.381Z,988.20
2023-03-20T14:23:18.426Z,992.53
2023-03-20T14:25:47.736Z,983.43
2023-03-20T14:28:14.288Z,981.30
2023-03-20T14:30:50.046Z,986.83
2023-03-20T14:33:16.833Z,985.55
2023-03-20T14:35:46.008Z,987.95
2023-03-20T14:38:21.073Z,994.28
2023-03-20T14:40:58.095Z,998.30
2023-03-20T14:43:56.744Z,993.03
2023-03-20T14:46:42.823Z,1005.13
2023-03-20T14:49:45.856Z,998.20
2023-03-20T14:52:35.154Z,999.27
2023-03-20T14:55:20.544Z,1015.60
2023-03-20T14:57:56.674Z,1019.17
2023-03-20T15:00:30.170Z,1019.38
2023-03-20T15:03:15.352Z,1022.67
2023-03-20T15:05:42.615Z,1018.85
2023-03-20T15:08:34.728Z,1011.22
2023-03-20T15:11:08.701Z,1008.03
2023-03-20T15:13:36.404Z,1006.50
2023-03-20T15:16:12.717Z,1004.30
2023-03-20T15:18:43.479Z,999.15
2023-03-20T15:21:19.064Z,993.70
2023-03-20T15:23:47.430Z,992.03
2023-03-20T15:26:15.939Z,1000.20
2023-03-20T15:28:44.700Z,999.25
2023-03-20T15:31:27.615Z,997.70
2023-03-20T15:33:55.665Z,1000.45
2023-03-20T15:36:26.121Z,993.22
2023-03-20T15:38:53.003Z,986.35
2023-03-20T15:41:28.264Z,990.83
2023-03-20T15:44:10.422Z,981.92
2023-03-20T15:46:37.057Z,981.97
2023-03-20T15:49:05.229Z,984.28
2023-03-20T15:51:34.158Z,980.20
2023-03-20T15:54:07.743Z,974.25
2023-03-20T15:56:35.846Z,978.38
2023-03-20T15:59:02.814Z,979.22
2023-03-20T16:01:32.734Z,972.88
2023-03-20T16:03:59.939Z,972.53
2023-03-20T16:06:27.134Z,974.67
2023-03-20T16:09:07.443Z,977.72
2023-03-20T16:11:43.117Z,980.08
2023-03-20T16:14:15.588Z,990.23
2023-03-20T16:16:43.404Z,992.17
2023-03-20T16:19:12.958Z,1003.05
2023-03-20T16:21:43.996Z,1002.85
2023-03-20T16:24:18.488Z,1005.25
2023-03-20T16:26:48.399Z,996.63
2023-03-20T16:29:16.508Z,1002.40
2023-03-20T16:32:05.822Z,999.63
2023-03-20T16:34:37.820Z,992.30
2023-03-20T16:37:21.725Z,992.85
2023-03-20T16:39:48.394Z,988.58
2023-03-20T16:42:25.416Z,991.20
2023-03-20T16:44:56.857Z,992.67
2023-03-20T16:47:33.042Z,988.40
2023-03-20T16:50:10.441Z,985.42
2023-03-20T16:52:40.255Z,986.15
2023-03-20T16:55:14.801Z,976.00
2023-03-20T16:57:42.589Z,979.90
2023-03-20T17:00:30.458Z,979.60
2023-03-20T17:03:11.798Z,980.13
2023-03-20T17:05:53.256Z,976.20
2023-03-20T17:08:29.474Z,972.58
2023-03-20T17:10:59.221Z,964.10
2023-03-20T17:13:26.174Z,964.47
2023-03-20T17:15:52.878Z,962.70
2023-03-20T17:18:19.768Z,946.08
2023-03-20T17:20:46.372Z,931.37
2023-03-20T17:23:19.812Z,932.63
2023-03-20T17:25:47.196Z,924.75
2023-03-20T17:28:23.326Z,923.17
2023-03-20T17:30:51.505Z,911.65
2023-03-20T17:33:20.878Z,915.00
2023-03-20T17:35:47.978Z,913.75
2023-03-20T17:38:21.360Z,918.53
2023-03-20T17:40:49.465Z,903.63
2023-03-20T17:43:17.433Z,907.90
2023-03-20T17:45:45.612Z,898.42
2023-03-20T17:48:15.896Z,904.85
2023-03-20T17:50:44.904Z,898.00
2023-03-20T17:53:17.844Z,889.28
2023-03-20T17:55:44.686Z,886.53
2023-03-20T17:58:18.821Z,884.58
2023-03-20T18:00:45.553Z,888.70
2023-03-20T18:03:12.575Z,883.65
2023-03-20T18:05:39.707Z,878.20
2023-03-20T18:08:12.577Z,883.67
2023-03-20T18:10:39.531Z,878.75
2023-03-20T18:13:06.367Z,881.65
2023-03-20T18:15:33.232Z,887.38
2023-03-20T18:17:59.917Z,879.63
2023-03-20T18:20:32.142Z,888.40
2023-03-20T18:22:58.777Z,888.50
2023-03-20T18:25:26.101Z,879.03
2023-03-20T18:27:54.257Z,890.15
2023-03-20T18:30:25.851Z,895.60
2023-03-20T18:32:52.649Z,893.40
2023-03-20T18:35:19.473Z,900.67
2023-03-20T18:37:46.245Z,905.92
2023-03-20T18:40:27.078Z,905.83
2023-03-20T18:42:55.300Z,902.17
2023-03-20T18:45:22.488Z,896.72
2023-03-20T18:47:49.687Z,910.38
2023-03-20T18:50:25.655Z,908.13
2023-03-20T18:52:54.061Z,892.67
2023-03-20T18:55:21.341Z,900.97
2023-03-20T18:57:47.975Z,908.80
2023-03-20T19:00:24.657Z,894.13
2023-03-20T19:02:55.199Z,905.08
2023-03-20T19:05:23.700Z,907.45
2023-03-20T19:07:50.919Z,900.42
2023-03-20T19:10:23.397Z,899.83
2023-03-20T19:12:50.390Z,895.60
2023-03-20T19:15:17.141Z,901.45
2023-03-20T19:17:43.770Z,906.30
2023-03-20T19:20:34.114Z,900.58
2023-03-20T19:23:02.561Z,914.00
2023-03-20T19:25:29.685Z,903.15
2023-03-20T19:27:56.384Z,896.22
2023-03-20T19:30:32.618Z,908.43
2023-03-20T19:32:59.948Z,897.95
2023-03-20T19:35:54.667Z,899.95
2023-03-20T19:38:17.331Z,902.50
2023-03-20T19:40:53.121Z,893.10
2023-03-20T19:43:23.381Z,900.60
2023-03-20T19:45:55.986Z,896.00
2023-03-20T19:48:27.164Z,900.42
2023-03-20T19:50:55.585Z,902.63
2023-03-20T19:53:24.961Z,908.08
2023-03-20T19:55:53.017Z,898.15
2023-03-20T19:58:19.967Z,902.08
2023-03-20T20:00:58.936Z,905.33
2023-03-20T20:03:27.335Z,896.75
2023-03-20T20:05:54.525Z,907.15
2023-03-20T20:08:41.302Z,899.53
2023-03-20T20:11:11.732Z,901.40
2023-03-20T20:13:51.151Z,903.50
2023-03-20T20:16:25.609Z,906.33
2023-03-20T20:18:52.236Z,892.53
2023-03-20T20:22:09.734Z,899.50
2023-03-20T20:24:05.880Z,909.42
2023-03-20T20:26:38.845Z,895.75
2023-03-20T20:29:07.456Z,900.17
2023-03-20T20:31:34.189Z,901.45
2023-03-20T20:34:48.769Z,894.90
2023-03-20T20:37:40.719Z,907.40
2023-03-20T20:39:34.203Z,904.63
2023-03-20T20:42:01.306Z,900.13
2023-03-20T20:44:28.112Z,895.67
2023-03-20T20:46:55.284Z,897.45
2023-03-20T20:49:22.001Z,898.13
2023-03-20T20:51:49.190Z,898.70
2023-03-20T20:54:16.797Z,894.87
2023-03-20T20:56:43.426Z,897.33
2023-03-20T20:59:10.020Z,888.53
2023-03-20T21:01:36.637Z,893.38
2023-03-20T21:04:03.337Z,887.55
2023-03-20T21:06:58.206Z,898.28
2023-03-20T21:09:16.747Z,896.15
2023-03-20T21:11:43.727Z,906.53
2023-03-20T21:14:10.587Z,892.33
2023-03-20T21:16:37.166Z,894.95
2023-03-20T21:19:03.851Z,898.08
2023-03-20T21:21:30.484Z,899.63
2023-03-20T21:23:57.147Z,889.53
2023-03-20T21:26:24.168Z,888.90
2023-03-20T21:28:51.356Z,896.40
2023-03-20T21:31:29.389Z,888.70
2023-03-20T21:33:57.923Z,891.67
2023-03-20T21:36:24.889Z,898.20
2023-03-20T21:39:07.730Z,888.22
2023-03-20T21:41:35.802Z,896.22
2023-03-20T21:44:03.623Z,891.30
2023-03-20T21:47:04.111Z,887.63
2023-03-20T21:52:48.861Z,878.60
2023-03-20T21:55:30.918Z,888.38
2023-03-20T21:58:21.294Z,885.22
2023-03-20T22:03:22.380Z,884.00
2023-03-20T22:06:37.294Z,878.95
2023-03-20T22:12:23.113Z,873.90
2023-03-20T22:15:03.822Z,877.88
2023-03-20T22:20:41.997Z,878.73
2023-03-20T22:23:26.334Z,874.63
2023-03-20T22:26:23.956Z,879.88
2023-03-20T22:40:14.409Z,872.80
2023-03-20T22:45:02.054Z,869.27
2023-03-20T22:47:30.188Z,868.88
2023-03-20T22:49:56.794Z,873.50
2023-03-20T22:52:34.723Z,859.72
2023-03-20T22:55:05.347Z,874.45
2023-03-20T22:57:42.277Z,876.95
2023-03-20T23:00:14.303Z,870.13
2023-03-20T23:02:42.173Z,867.35
2023-03-20T23:05:10.121Z,872.03
2023-03-20T23:07:37.624Z,870.13
2023-03-20T23:10:05.796Z,866.50
2023-03-20T23:12:32.967Z,868.33
2023-03-20T23:15:00.437Z,873.40
2023-03-20T23:17:27.069Z,867.35
2023-03-20T23:20:08.701Z,868.65
2023-03-20T23:22:38.205Z,864.13
2023-03-20T23:25:14.455Z,870.17
2023-03-20T23:27:45.158Z,870.25
2023-03-20T23:30:12.657Z,864.13
2023-03-20T23:32:40.460Z,864.47
2023-03-20T23:35:08.362Z,868.60
2023-03-20T23:37:36.122Z,865.60
2023-03-20T23:40:04.596Z,868.28
2023-03-20T23:42:31.654Z,863.20
2023-03-20T23:45:04.403Z,868.20
2023-03-20T23:47:45.471Z,867.75
2023-03-20T23:50:20.550Z,869.95
2023-03-20T23:53:01.346Z,875.05
2023-03-20T23:55:35.482Z,868.72
2023-03-20T23:58:02.681Z,871.47
